Silver Wind — C6FG2 — position and weather

sailwx.info

Track history (hours):
 
Tides and Currents Weather Stations Pressure Air Temp Water Temp Dewpoint Dewpoint Depression Visibility Wind Speed Wind Dir Waves Ship Positions

Silver Wind

Operator: V Ships Leisure

Last reported at 2019-Feb-22 03:28 UTC. Time now 2019-Feb-23 23:37 UTC.
Position N 25°31' W 079°46'.

Length 156 m; draft 5.7 m.

Type: Passenger vessel. MMSI: 308814000.

Date/timePositionNaut miles runAvg speedWind from/ knotsBaromVisibWave heightAir tempDewpointWater temp
2019-Feb-22 03:28N 25°31' W 079°46'714.5
2019-Feb-22 03:00N 25°38' W 079°47'714.5
2019-Feb-22 02:30N 25°45' W 079°49'714.1
2019-Feb-22 02:01N 25°52' W 079°50'713.9
2019-Feb-22 01:30N 25°59' W 079°51'612.4
2019-Feb-22 01:01N 26°04' W 079°54'714.3
2019-Feb-22 00:30N 26°05' W 080°02'4 8.8
2019-Feb-22 00:00N 26°06' W 080°07'0 0.5
2019-Feb-21 23:28N 26°05' W 080°07'0 0.0
2019-Feb-21 22:58N 26°05' W 080°07'0 0.0
2019-Feb-21 22:28N 26°05' W 080°07'0 0.0
2019-Feb-21 21:58N 26°05' W 080°07'0 0.0
2019-Feb-21 21:28N 26°05' W 080°07'0 0.0
2019-Feb-21 20:58N 26°05' W 080°07'0 0.0
2019-Feb-21 20:28N 26°05' W 080°07'0 0.0
2019-Feb-21 19:58N 26°05' W 080°07'0 0.0
2019-Feb-21 19:28N 26°05' W 080°07'0 0.0
2019-Feb-21 18:58N 26°05' W 080°07'0 0.0
2019-Feb-21 18:28N 26°05' W 080°07'0 0.0
2019-Feb-21 17:58N 26°05' W 080°07'0 0.0
2019-Feb-21 17:28N 26°05' W 080°07'0 0.0
2019-Feb-21 16:58N 26°05' W 080°07'0 0.0
2019-Feb-21 16:28N 26°05' W 080°07'0 0.0
2019-Feb-21 15:58N 26°05' W 080°07'0 0.0
2019-Feb-21 15:28N 26°05' W 080°07'0 0.0
2019-Feb-21 14:58N 26°05' W 080°07'0 0.0
2019-Feb-21 14:28N 26°05' W 080°07'0 0.0
2019-Feb-21 13:58N 26°05' W 080°07'0 0.0
2019-Feb-21 13:28N 26°05' W 080°07'0 0.0
2019-Feb-21 12:59N 26°05' W 080°07'0 0.5
2019-Feb-21 12:31N 26°06' W 080°07'4 8.8
2019-Feb-21 12:00N 26°05' W 080°02'611.6
2019-Feb-21 11:30N 26°03' W 079°56'611.7
2019-Feb-21 11:01N 25°60' W 079°51'612.1
2019-Feb-21 10:30N 25°57' W 079°45'612.8
2019-Feb-21 10:00N 25°54' W 079°39'612.3
2019-Feb-21 09:30N 25°52' W 079°32'7 5.5
2019-Feb-21 08:11N 25°54' W 079°24'1110.2
2019-Feb-21 07:07N 25°44' W 079°27'5 8.2
2019-Feb-21 06:30N 25°42' W 079°32'3 6.6
2019-Feb-21 06:00N 25°43' W 079°35'3 6.4
2019-Feb-21 05:30N 25°46' W 079°34'3 6.7
2019-Feb-21 05:00N 25°49' W 079°33'3 6.4
2019-Feb-21 04:30N 25°51' W 079°30'4 8.0
2019-Feb-21 04:00N 25°48' W 079°27'  
2019-Feb-14 05:12N 18°27' W 065°00'312.6
2019-Feb-14 05:00N 18°27' W 064°57'612.0
2019-Feb-14 04:30N 18°24' W 064°52'612.3
2019-Feb-14 04:00N 18°23' W 064°45'1212.4
2019-Feb-14 03:00N 18°24' W 064°32'612.4
2019-Feb-14 02:30N 18°27' W 064°27'0 0.0
2019-Feb-13 13:28N 18°27' W 064°27'0 0.3
2019-Feb-13 12:52N 18°27' W 064°27'0 0.0
2019-Feb-13 11:53N 18°27' W 064°27'0 0.0
2019-Feb-13 11:29N 18°27' W 064°27'3 5.6
2019-Feb-13 11:00N 18°25' W 064°28'712.5
2019-Feb-13 10:28N 18°20' W 064°23'5013.7
2019-Feb-13 06:47N 17°57' W 063°36'414.0
2019-Feb-13 06:30N 17°55' W 063°32'714.2
2019-Feb-13 05:59N 17°52' W 063°25'814.1
2019-Feb-13 05:27N 17°49' W 063°18'614.0
2019-Feb-13 05:00N 17°46' W 063°12'914.0
2019-Feb-13 04:22N 17°42' W 063°04'514.0
2019-Feb-13 03:59N 17°40' W 062°59'714.2
2019-Feb-13 03:30N 17°36' W 062°52'  
Track history (hours):
 
Tides and Currents Weather Stations Pressure Air Temp Water Temp Dewpoint Dewpoint Depression Visibility Wind Speed Wind Dir Waves Ship Positions

Silver Wind

Operator: V Ships Leisure

Last reported at 2019-Feb-22 03:28 UTC. Time now 2019-Feb-23 23:37 UTC.
Position N 25°31' W 079°46'.

Length 156 m; draft 5.7 m.

Type: Passenger vessel. MMSI: 308814000.

Date/timePositionNaut miles runAvg speedWind from/ knotsBaromVisibWave heightAir tempDewpointWater temp
2019-Feb-22 03:28N 25°31' W 079°46'714.5
2019-Feb-22 03:00N 25°38' W 079°47'714.5
2019-Feb-22 02:30N 25°45' W 079°49'714.1
2019-Feb-22 02:01N 25°52' W 079°50'713.9
2019-Feb-22 01:30N 25°59' W 079°51'612.4
2019-Feb-22 01:01N 26°04' W 079°54'714.3
2019-Feb-22 00:30N 26°05' W 080°02'4 8.8
2019-Feb-22 00:00N 26°06' W 080°07'0 0.5
2019-Feb-21 23:28N 26°05' W 080°07'0 0.0
2019-Feb-21 22:58N 26°05' W 080°07'0 0.0
2019-Feb-21 22:28N 26°05' W 080°07'0 0.0
2019-Feb-21 21:58N 26°05' W 080°07'0 0.0
2019-Feb-21 21:28N 26°05' W 080°07'0 0.0
2019-Feb-21 20:58N 26°05' W 080°07'0 0.0
2019-Feb-21 20:28N 26°05' W 080°07'0 0.0
2019-Feb-21 19:58N 26°05' W 080°07'0 0.0
2019-Feb-21 19:28N 26°05' W 080°07'0 0.0
2019-Feb-21 18:58N 26°05' W 080°07'0 0.0
2019-Feb-21 18:28N 26°05' W 080°07'0 0.0
2019-Feb-21 17:58N 26°05' W 080°07'0 0.0
2019-Feb-21 17:28N 26°05' W 080°07'0 0.0
2019-Feb-21 16:58N 26°05' W 080°07'0 0.0
2019-Feb-21 16:28N 26°05' W 080°07'0 0.0
2019-Feb-21 15:58N 26°05' W 080°07'0 0.0
2019-Feb-21 15:28N 26°05' W 080°07'0 0.0
2019-Feb-21 14:58N 26°05' W 080°07'0 0.0
2019-Feb-21 14:28N 26°05' W 080°07'0 0.0
2019-Feb-21 13:58N 26°05' W 080°07'0 0.0
2019-Feb-21 13:28N 26°05' W 080°07'0 0.0
2019-Feb-21 12:59N 26°05' W 080°07'0 0.5
2019-Feb-21 12:31N 26°06' W 080°07'4 8.8
2019-Feb-21 12:00N 26°05' W 080°02'611.6
2019-Feb-21 11:30N 26°03' W 079°56'611.7
2019-Feb-21 11:01N 25°60' W 079°51'612.1
2019-Feb-21 10:30N 25°57' W 079°45'612.8
2019-Feb-21 10:00N 25°54' W 079°39'612.3
2019-Feb-21 09:30N 25°52' W 079°32'7 5.5
2019-Feb-21 08:11N 25°54' W 079°24'1110.2
2019-Feb-21 07:07N 25°44' W 079°27'5 8.2
2019-Feb-21 06:30N 25°42' W 079°32'3 6.6
2019-Feb-21 06:00N 25°43' W 079°35'3 6.4
2019-Feb-21 05:30N 25°46' W 079°34'3 6.7
2019-Feb-21 05:00N 25°49' W 079°33'3 6.4
2019-Feb-21 04:30N 25°51' W 079°30'4 8.0
2019-Feb-21 04:00N 25°48' W 079°27'  
2019-Feb-14 05:12N 18°27' W 065°00'312.6
2019-Feb-14 05:00N 18°27' W 064°57'612.0
2019-Feb-14 04:30N 18°24' W 064°52'612.3
2019-Feb-14 04:00N 18°23' W 064°45'1212.4
2019-Feb-14 03:00N 18°24' W 064°32'612.4
2019-Feb-14 02:30N 18°27' W 064°27'0 0.0
2019-Feb-13 13:28N 18°27' W 064°27'0 0.3
2019-Feb-13 12:52N 18°27' W 064°27'0 0.0
2019-Feb-13 11:53N 18°27' W 064°27'0 0.0
2019-Feb-13 11:29N 18°27' W 064°27'3 5.6
2019-Feb-13 11:00N 18°25' W 064°28'712.5
2019-Feb-13 10:28N 18°20' W 064°23'5013.7
2019-Feb-13 06:47N 17°57' W 063°36'414.0
2019-Feb-13 06:30N 17°55' W 063°32'714.2
2019-Feb-13 05:59N 17°52' W 063°25'814.1
2019-Feb-13 05:27N 17°49' W 063°18'614.0
2019-Feb-13 05:00N 17°46' W 063°12'914.0
2019-Feb-13 04:22N 17°42' W 063°04'514.0
2019-Feb-13 03:59N 17°40' W 062°59'714.2
2019-Feb-13 03:30N 17°36' W 062°52'  

Dump ship's entire track history